Leasingham, United Kingdom
Current Conditions -  °F | °C
As of 1:50 AM on Thursday 18 Dec 2014 (Local Time) from EGYD Reporting Station
Scattered Clouds Scattered Clouds  
Wind Chill: 52°   Ceiling: Unl
Heat Index: 52°   Visibility: 6mi
Dew Point: 50°   Wind: 16mph
Humidity: 94%   Direction: 250°WSW
Pressure: 29.68"   Gusts: NA
Location:  53.03°N, 0.43°W
Report Text: EGYD 180150Z AUTO 25014KT 9999 // FEW026/// SCT050/// 11/10 Q1005
Loading
Personal Weather Stations






























Interactive Weather Map New forecast layout! Learn more

10-Day Weather Forecast

Advertisements
Track Severe Weather on mobile